Time,TemperatureF,DewpointF,PressureIn,WindDirection,WindDirectionDegrees,WindSpeedMPH,WindSpeedGustMPH,Humidity,HourlyPrecipIn,Conditions,Clouds,dailyrainin,SoftwareType,DateUTC
2013-07-12 00:09:00,64.9,56.8,30.07,NE,45,0.0,-999.0,75,-99.99,,,0.00,Acu-Link.com,2013-07-12 05:09:00,
2013-07-12 00:25:00,64.8,56.3,30.07,SSE,157,0.0,-999.0,74,-99.99,,,0.00,Acu-Link.com,2013-07-12 05:25:00,
2013-07-12 00:40:00,63.9,56.2,30.08,South,180,0.0,-999.0,76,-99.99,,,0.00,Acu-Link.com,2013-07-12 05:40:00,
2013-07-12 00:55:00,63.3,56.3,30.08,North,0,0.0,-999.0,78,-99.99,,,0.00,Acu-Link.com,2013-07-12 05:55:00,
2013-07-12 01:11:00,63.3,56.0,30.08,South,180,0.0,-999.0,77,-99.99,,,0.00,Acu-Link.com,2013-07-12 06:11:00,
2013-07-12 01:26:00,63.5,56.2,30.07,SE,135,0.0,-999.0,77,-99.99,,,0.00,Acu-Link.com,2013-07-12 06:26:00,
2013-07-12 01:41:00,63.7,56.7,30.07,SSE,157,0.0,-999.0,78,-99.99,,,0.00,Acu-Link.com,2013-07-12 06:41:00,
2013-07-12 01:57:00,64.2,56.5,30.07,South,180,0.0,-999.0,76,-99.99,,,0.00,Acu-Link.com,2013-07-12 06:57:00,
2013-07-12 02:12:00,63.7,56.3,30.08,SSE,157,0.0,-999.0,77,-99.99,,,0.00,Acu-Link.com,2013-07-12 07:12:00,
2013-07-12 02:27:00,62.2,56.0,30.09,SW,225,0.0,-999.0,80,-99.99,,,0.00,Acu-Link.com,2013-07-12 07:27:00,
2013-07-12 02:43:00,61.9,57.0,30.09,SW,225,0.0,-999.0,84,-99.99,,,0.00,Acu-Link.com,2013-07-12 07:43:00,
2013-07-12 02:58:00,61.2,56.7,30.09,SW,225,0.0,-999.0,85,-99.99,,,0.00,Acu-Link.com,2013-07-12 07:58:00,
2013-07-12 03:14:00,61.7,57.5,30.09,SSW,202,0.0,-999.0,86,-99.99,,,0.00,Acu-Link.com,2013-07-12 08:14:00,
2013-07-12 03:29:00,61.2,57.0,30.08,South,180,0.0,-999.0,86,-99.99,,,0.00,Acu-Link.com,2013-07-12 08:29:00,
2013-07-12 03:44:00,60.8,56.9,30.08,SE,135,0.0,-999.0,87,-99.99,,,0.00,Acu-Link.com,2013-07-12 08:44:00,
2013-07-12 03:59:00,60.4,57.1,30.09,SSE,157,0.0,-999.0,89,-99.99,,,0.00,Acu-Link.com,2013-07-12 08:59:00,
2013-07-12 04:15:00,61.0,60.4,30.09,South,180,0.0,-999.0,98,-99.99,,,0.00,Acu-Link.com,2013-07-12 09:15:00,
2013-07-12 04:30:00,60.4,59.8,30.10,SSE,157,0.0,-999.0,98,-99.99,,,0.00,Acu-Link.com,2013-07-12 09:30:00,
2013-07-12 04:45:00,60.3,59.7,30.09,South,180,0.0,-999.0,98,-99.99,,,0.00,Acu-Link.com,2013-07-12 09:45:00,
2013-07-12 05:00:00,59.7,59.1,30.09,SW,225,0.0,-999.0,98,-99.99,,,0.00,Acu-Link.com,2013-07-12 10:00:00,
2013-07-12 05:15:00,59.4,58.8,30.10,West,270,0.0,-999.0,98,-99.99,,,0.00,Acu-Link.com,2013-07-12 10:15:00,
2013-07-12 05:30:00,59.7,59.1,30.10,SSE,157,0.0,-999.0,98,-99.99,,,0.00,Acu-Link.com,2013-07-12 10:30:00,
2013-07-12 05:45:00,59.2,58.6,30.11,WSW,247,0.0,-999.0,98,-99.99,,,0.00,Acu-Link.com,2013-07-12 10:45:00,
2013-07-12 06:01:00,59.4,58.8,30.11,WSW,247,0.0,-999.0,98,-99.99,,,0.00,Acu-Link.com,2013-07-12 11:01:00,
2013-07-12 06:16:00,62.1,59.1,30.11,South,180,0.0,-999.0,90,-99.99,,,0.00,Acu-Link.com,2013-07-12 11:16:00,
2013-07-12 06:31:00,65.5,58.1,30.11,East,90,0.0,-999.0,77,-99.99,,,0.00,Acu-Link.com,2013-07-12 11:31:00,
2013-07-12 06:46:00,67.6,58.6,30.11,ESE,112,0.0,-999.0,73,-99.99,,,0.00,Acu-Link.com,2013-07-12 11:46:00,
2013-07-12 07:02:00,70.0,58.5,30.11,SSE,157,0.0,-999.0,67,-99.99,,,0.00,Acu-Link.com,2013-07-12 12:02:00,
2013-07-12 07:17:00,72.0,57.8,30.12,ESE,112,0.0,-999.0,61,-99.99,,,0.00,Acu-Link.com,2013-07-12 12:17:00,
2013-07-12 07:32:00,73.2,58.5,30.12,SSE,157,0.0,-999.0,60,-99.99,,,0.00,Acu-Link.com,2013-07-12 12:32:00,
2013-07-12 07:48:00,75.7,57.9,30.13,ESE,112,0.0,-999.0,54,-99.99,,,0.00,Acu-Link.com,2013-07-12 12:48:00,
2013-07-12 08:03:00,78.4,55.3,30.13,SSE,157,0.0,-999.0,45,-99.99,,,0.00,Acu-Link.com,2013-07-12 13:03:00,
2013-07-12 08:18:00,79.3,54.8,30.13,SSE,157,0.0,-999.0,43,-99.99,,,0.00,Acu-Link.com,2013-07-12 13:18:00,
2013-07-12 08:33:00,75.0,54.0,30.13,South,180,0.0,-999.0,48,-99.99,,,0.00,Acu-Link.com,2013-07-12 13:33:00,
2013-07-12 08:48:00,75.7,51.6,30.13,SSW,202,0.0,-999.0,43,-99.99,,,0.00,Acu-Link.com,2013-07-12 13:48:00,
2013-07-12 09:04:00,76.6,52.4,30.13,SW,225,0.0,-999.0,43,-99.99,,,0.00,Acu-Link.com,2013-07-12 14:04:00,
2013-07-12 09:19:00,76.6,51.8,30.13,West,270,0.0,-999.0,42,-99.99,,,0.00,Acu-Link.com,2013-07-12 14:19:00,
2013-07-12 09:34:00,78.3,53.3,30.13,SSE,157,0.0,-999.0,42,-99.99,,,0.00,Acu-Link.com,2013-07-12 14:34:00,
2013-07-12 09:49:00,77.5,51.3,30.13,SSE,157,0.0,-999.0,40,-99.99,,,0.00,Acu-Link.com,2013-07-12 14:49:00,
2013-07-12 10:05:00,78.8,51.0,30.13,SSW,202,0.0,-999.0,38,-99.99,,,0.00,Acu-Link.com,2013-07-12 15:05:00,
2013-07-12 10:20:00,79.2,51.4,30.13,South,180,0.0,-999.0,38,-99.99,,,0.00,Acu-Link.com,2013-07-12 15:20:00,
2013-07-12 10:35:00,80.4,50.2,30.13,SSW,202,0.0,-999.0,35,-99.99,,,0.00,Acu-Link.com,2013-07-12 15:35:00,
2013-07-12 10:50:00,81.5,52.7,30.13,SSW,202,0.0,-999.0,37,-99.99,,,0.00,Acu-Link.com,2013-07-12 15:50:00,
2013-07-12 11:06:00,81.3,51.0,30.12,SE,135,0.0,-999.0,35,-99.99,,,0.00,Acu-Link.com,2013-07-12 16:06:00,
2013-07-12 11:21:00,81.7,49.8,30.13,South,180,2.7,-999.0,33,-99.99,,,0.00,Acu-Link.com,2013-07-12 16:21:00,
2013-07-12 11:36:00,82.0,49.2,30.12,SSW,202,2.2,-999.0,32,-99.99,,,0.00,Acu-Link.com,2013-07-12 16:36:00,
2013-07-12 11:52:00,82.6,48.0,30.12,SSW,202,0.0,-999.0,30,-99.99,,,0.00,Acu-Link.com,2013-07-12 16:52:00,
2013-07-12 12:07:00,82.6,48.0,30.12,South,180,2.7,-999.0,30,-99.99,,,0.00,Acu-Link.com,2013-07-12 17:07:00,
2013-07-12 12:38:00,82.9,49.1,30.11,South,180,3.2,-999.0,31,-99.99,,,0.00,Acu-Link.com,2013-07-12 17:38:00,
2013-07-12 12:53:00,83.7,49.8,30.11,South,180,3.7,-999.0,31,-99.99,,,0.00,Acu-Link.com,2013-07-12 17:53:00,
2013-07-12 13:23:00,82.2,48.5,30.11,SSE,157,0.0,-999.0,31,-99.99,,,0.00,Acu-Link.com,2013-07-12 18:23:00,
2013-07-12 13:54:00,83.3,50.3,30.11,SSE,157,0.0,-999.0,32,-99.99,,,0.00,Acu-Link.com,2013-07-12 18:54:00,
2013-07-12 14:09:00,83.3,51.2,30.11,NE,45,0.0,-999.0,33,-99.99,,,0.00,Acu-Link.com,2013-07-12 19:09:00,
2013-07-12 14:24:00,83.1,51.8,30.10,South,180,3.2,-999.0,34,-99.99,,,0.00,Acu-Link.com,2013-07-12 19:24:00,
2013-07-12 14:40:00,84.2,49.4,30.11,SW,225,0.0,-999.0,30,-99.99,,,0.00,Acu-Link.com,2013-07-12 19:40:00,
2013-07-12 14:55:00,84.0,49.2,30.10,South,180,0.0,-999.0,30,-99.99,,,0.00,Acu-Link.com,2013-07-12 19:55:00,
2013-07-12 15:10:00,84.7,49.8,30.09,West,270,0.0,-999.0,30,-99.99,,,0.00,Acu-Link.com,2013-07-12 20:10:00,
2013-07-12 15:41:00,85.8,52.5,30.08,South,180,0.0,-999.0,32,-99.99,,,0.00,Acu-Link.com,2013-07-12 20:41:00,
2013-07-12 15:56:00,85.5,51.4,30.08,ESE,112,3.7,-999.0,31,-99.99,,,0.00,Acu-Link.com,2013-07-12 20:56:00,
2013-07-12 16:12:00,85.5,50.5,30.08,SSE,157,4.7,-999.0,30,-99.99,,,0.00,Acu-Link.com,2013-07-12 21:12:00,
2013-07-12 16:27:00,85.3,50.3,30.07,South,180,0.0,-999.0,30,-99.99,,,0.00,Acu-Link.com,2013-07-12 21:27:00,
2013-07-12 16:42:00,85.6,51.5,30.07,South,180,0.0,-999.0,31,-99.99,,,0.00,Acu-Link.com,2013-07-12 21:42:00,
2013-07-12 16:58:00,86.0,51.8,30.07,SSE,157,2.2,-999.0,31,-99.99,,,0.00,Acu-Link.com,2013-07-12 21:58:00,
2013-07-12 17:13:00,85.5,53.1,30.07,South,180,1.7,-999.0,33,-99.99,,,0.00,Acu-Link.com,2013-07-12 22:13:00,
2013-07-12 17:28:00,86.0,51.8,30.07,SE,135,0.0,-999.0,31,-99.99,,,0.00,Acu-Link.com,2013-07-12 22:28:00,
2013-07-12 17:43:00,88.3,52.0,30.07,NE,45,0.0,-999.0,29,-99.99,,,0.00,Acu-Link.com,2013-07-12 22:43:00,
2013-07-12 17:58:00,89.2,49.8,30.07,SSW,202,1.1,-999.0,26,-99.99,,,0.00,Acu-Link.com,2013-07-12 22:58:00,
2013-07-12 18:29:00,91.9,49.9,30.06,SE,135,0.0,-999.0,24,-99.99,,,0.00,Acu-Link.com,2013-07-12 23:29:00,
2013-07-12 19:00:00,88.3,48.0,30.07,SSW,202,0.0,-999.0,25,-99.99,,,0.00,Acu-Link.com,2013-07-13 00:00:00,
2013-07-12 19:15:00,88.0,47.7,30.07,SSE,157,0.0,-999.0,25,-99.99,,,0.00,Acu-Link.com,2013-07-13 00:15:00,
2013-07-12 19:30:00,87.1,49.0,30.06,South,180,0.0,-999.0,27,-99.99,,,0.00,Acu-Link.com,2013-07-13 00:30:00,
2013-07-12 19:45:00,85.3,49.4,30.07,South,180,0.0,-999.0,29,-99.99,,,0.00,Acu-Link.com,2013-07-13 00:45:00,
2013-07-12 20:01:00,83.7,50.7,30.07,South,180,0.0,-999.0,32,-99.99,,,0.00,Acu-Link.com,2013-07-13 01:01:00,
2013-07-12 20:16:00,81.1,51.6,30.07,South,180,0.0,-999.0,36,-99.99,,,0.00,Acu-Link.com,2013-07-13 01:16:00,
2013-07-12 20:31:00,79.0,52.6,30.06,South,180,0.0,-999.0,40,-99.99,,,0.00,Acu-Link.com,2013-07-13 01:31:00,
2013-07-12 20:47:00,77.5,52.6,30.07,South,180,0.0,-999.0,42,-99.99,,,0.00,Acu-Link.com,2013-07-13 01:47:00,
2013-07-12 21:02:00,76.3,52.8,30.06,South,180,0.0,-999.0,44,-99.99,,,0.00,Acu-Link.com,2013-07-13 02:02:00,
2013-07-12 21:17:00,75.0,53.4,30.07,SSE,157,0.0,-999.0,47,-99.99,,,0.00,Acu-Link.com,2013-07-13 02:17:00,
2013-07-12 21:33:00,74.1,53.7,30.07,SE,135,0.0,-999.0,49,-99.99,,,0.00,Acu-Link.com,2013-07-13 02:33:00,
2013-07-12 21:48:00,73.2,54.5,30.06,SSE,157,0.0,-999.0,52,-99.99,,,0.00,Acu-Link.com,2013-07-13 02:48:00,
2013-07-12 22:03:00,72.3,55.2,30.06,SSE,157,0.0,-999.0,55,-99.99,,,0.00,Acu-Link.com,2013-07-13 03:03:00,
2013-07-12 22:18:00,71.6,57.0,30.07,SSE,157,0.0,-999.0,60,-99.99,,,0.00,Acu-Link.com,2013-07-13 03:18:00,
2013-07-12 22:33:00,70.9,58.1,30.07,SSE,157,0.0,-999.0,64,-99.99,,,0.00,Acu-Link.com,2013-07-13 03:33:00,
2013-07-12 23:04:00,70.2,57.9,30.07,SE,135,0.0,-999.0,65,-99.99,,,0.00,Acu-Link.com,2013-07-13 04:04:00,
2013-07-12 23:19:00,69.6,57.7,30.06,SSE,157,0.0,-999.0,66,-99.99,,,0.00,Acu-Link.com,2013-07-13 04:19:00,
2013-07-12 23:35:00,69.1,57.7,30.06,South,180,0.0,-999.0,67,-99.99,,,0.00,Acu-Link.com,2013-07-13 04:35:00,
2013-07-12 23:50:00,68.4,57.4,30.06,South,180,0.0,-999.0,68,-99.99,,,0.00,Acu-Link.com,2013-07-13 04:50:00,